Time;durP1;ratioP1;P1;durP2;ratioP2;P2;SDS_P1;SDS_P2;PMS_P1;PMS_P2;Temp;Humidity;BMP_temperature;BMP_pressure;BME280_temperature;BME280_humidity;BME280_pressure;Samples;Min_cycle;Max_cycle;Signal;HPM_P1;HPM_P2
2024/02/28 00:00:42;;;;;;;19.13;14.30;;;;;;;;;;5053240;28;20025;-57
2024/02/28 00:03:08;;;;;;;16.42;13.95;;;;;;;;;;5053572;28;20028;-57
2024/02/28 00:05:34;;;;;;;18.30;14.25;;;;;;;;;;5053931;28;20074;-57
2024/02/28 00:08:00;;;;;;;15.38;13.75;;;;;;;;;;5053500;28;20052;-57
2024/02/28 00:10:25;;;;;;;16.17;13.88;;;;;;;;;;5053927;28;20382;-56
2024/02/28 00:12:51;;;;;;;17.13;13.68;;;;;;;;;;5053115;28;20104;-57
2024/02/28 00:15:17;;;;;;;18.02;14.00;;;;;;;;;;5052918;28;20100;-56
2024/02/28 00:17:44;;;;;;;16.65;13.70;;;;;;;;;;5053099;28;20060;-57
2024/02/28 00:20:11;;;;;;;18.13;14.38;;;;;;;;;;5053276;28;20029;-56
2024/02/28 00:22:37;;;;;;;22.13;14.00;;;;;;;;;;5053015;28;20059;-56
2024/02/28 00:25:05;;;;;;;14.75;13.23;;;;;;;;;;5052963;28;20021;-57
2024/02/28 00:27:31;;;;;;;18.30;13.90;;;;;;;;;;5053180;28;20025;-56
2024/02/28 00:29:57;;;;;;;16.45;13.45;;;;;;;;;;5053057;28;20359;-57
2024/02/28 00:32:23;;;;;;;15.93;13.43;;;;;;;;;;5052958;28;20380;-57
2024/02/28 00:34:48;;;;;;;18.38;14.32;;;;;;;;;;5054671;28;20029;-57
2024/02/28 00:37:14;;;;;;;20.92;15.30;;;;;;;;;;5056941;28;20028;-56
2024/02/28 00:39:40;;;;;;;17.42;13.75;;;;;;;;;;5056955;28;20363;-56
2024/02/28 00:42:06;;;;;;;16.65;13.57;;;;;;;;;;5056818;28;20036;-56
2024/02/28 00:44:32;;;;;;;18.55;14.70;;;;;;;;;;5056565;28;20398;-55
2024/02/28 00:46:58;;;;;;;18.75;14.25;;;;;;;;;;5056786;28;20086;-55
2024/02/28 00:49:24;;;;;;;20.55;14.93;;;;;;;;;;5057128;28;20358;-54
2024/02/28 00:51:50;;;;;;;21.67;14.40;;;;;;;;;;5056131;28;20025;-56
2024/02/28 00:54:16;;;;;;;14.15;12.35;;;;;;;;;;5056136;28;20035;-56
2024/02/28 00:56:42;;;;;;;22.25;15.57;;;;;;;;;;5055723;28;20052;-56
2024/02/28 00:59:10;;;;;;;20.20;13.90;;;;;;;;;;5055861;28;20029;-56
2024/02/28 01:01:36;;;;;;;18.17;15.13;;;;;;;;;;5055972;28;20029;-57
2024/02/28 01:04:02;;;;;;;18.90;14.13;;;;;;;;;;5056018;28;20035;-56
2024/02/28 01:06:28;;;;;;;22.42;13.40;;;;;;;;;;5055643;28;20035;-55
2024/02/28 01:08:54;;;;;;;15.52;13.75;;;;;;;;;;5056455;28;20384;-56
2024/02/28 01:11:20;;;;;;;18.67;14.18;;;;;;;;;;5055848;28;20037;-56
2024/02/28 01:13:46;;;;;;;17.35;13.52;;;;;;;;;;5055765;28;20029;-56
2024/02/28 01:16:12;;;;;;;18.30;15.27;;;;;;;;;;5055446;28;20021;-56
2024/02/28 01:18:38;;;;;;;18.02;14.82;;;;;;;;;;5055894;28;20039;-57
2024/02/28 01:21:04;;;;;;;18.52;14.98;;;;;;;;;;5056144;28;20036;-57
2024/02/28 01:23:31;;;;;;;19.13;14.85;;;;;;;;;;5055580;28;20455;-55
2024/02/28 01:25:57;;;;;;;21.02;14.43;;;;;;;;;;5055480;28;20079;-57
2024/02/28 01:28:23;;;;;;;18.17;14.02;;;;;;;;;;5056053;28;20025;-55
2024/02/28 01:30:49;;;;;;;17.48;13.73;;;;;;;;;;5055705;28;20479;-52
2024/02/28 01:33:15;;;;;;;19.67;14.88;;;;;;;;;;5055343;28;20483;-57
2024/02/28 01:35:41;;;;;;;17.52;13.68;;;;;;;;;;5055307;28;20052;-57
2024/02/28 01:38:07;;;;;;;20.77;14.02;;;;;;;;;;5055586;28;20094;-54
2024/02/28 01:40:33;;;;;;;18.95;15.40;;;;;;;;;;5055420;28;20124;-55
2024/02/28 01:43:07;;;;;;;19.83;14.63;;;;;;;;;;5055713;28;20465;-56
2024/02/28 01:45:33;;;;;;;21.15;14.82;;;;;;;;;;5055039;28;20025;-56
2024/02/28 01:47:59;;;;;;;19.05;14.18;;;;;;;;;;5055616;28;20158;-56
2024/02/28 01:50:25;;;;;;;18.73;14.63;;;;;;;;;;5055136;28;20032;-57
2024/02/28 01:52:51;;;;;;;14.93;13.43;;;;;;;;;;5055031;28;20487;-57
2024/02/28 01:55:18;;;;;;;22.33;16.20;;;;;;;;;;5055163;28;20098;-57
2024/02/28 01:57:44;;;;;;;18.73;14.95;;;;;;;;;;5055350;28;20056;-56
2024/02/28 02:00:11;;;;;;;20.85;15.27;;;;;;;;;;5055017;28;20029;-57
2024/02/28 02:02:37;;;;;;;19.15;14.20;;;;;;;;;;5055147;28;20033;-57
2024/02/28 02:05:04;;;;;;;20.88;14.30;;;;;;;;;;5055558;28;20056;-55
2024/02/28 02:07:30;;;;;;;20.52;15.60;;;;;;;;;;5055091;28;20029;-56
2024/02/28 02:09:56;;;;;;;19.17;16.48;;;;;;;;;;5055233;28;20423;-56
2024/02/28 02:12:22;;;;;;;20.85;15.57;;;;;;;;;;5055203;28;20036;-56
2024/02/28 02:14:50;;;;;;;20.02;14.48;;;;;;;;;;5054954;28;20025;-57
2024/02/28 02:17:16;;;;;;;17.25;14.15;;;;;;;;;;5054273;28;20025;-57
2024/02/28 02:19:42;;;;;;;19.42;14.02;;;;;;;;;;5054424;28;20033;-56
2024/02/28 02:22:09;;;;;;;17.92;14.85;;;;;;;;;;5054528;28;20029;-56
2024/02/28 02:24:35;;;;;;;21.25;15.40;;;;;;;;;;5054904;28;20029;-57
2024/02/28 02:27:04;;;;;;;18.13;15.07;;;;;;;;;;5054625;28;20024;-57
2024/02/28 02:29:30;;;;;;;24.70;16.98;;;;;;;;;;5054872;28;20061;-56
2024/02/28 02:31:56;;;;;;;18.50;14.13;;;;;;;;;;5054331;28;20130;-57
2024/02/28 02:34:22;;;;;;;22.52;15.68;;;;;;;;;;5054964;28;20025;-55
2024/02/28 02:36:48;;;;;;;20.17;14.57;;;;;;;;;;5054184;28;20028;-56
2024/02/28 02:39:14;;;;;;;18.52;14.23;;;;;;;;;;5054693;28;20055;-56
2024/02/28 02:41:40;;;;;;;18.10;14.10;;;;;;;;;;5054448;28;20061;-56
2024/02/28 02:44:06;;;;;;;18.70;14.38;;;;;;;;;;5054023;28;20044;-57
2024/02/28 02:46:32;;;;;;;18.80;14.65;;;;;;;;;;5054953;28;20416;-56
2024/02/28 02:48:58;;;;;;;21.15;15.88;;;;;;;;;;5054372;28;20041;-56
2024/02/28 02:51:25;;;;;;;18.20;15.38;;;;;;;;;;5053698;28;20025;-56
2024/02/28 02:53:51;;;;;;;17.65;13.93;;;;;;;;;;5053931;28;20033;-57
2024/02/28 02:56:17;;;;;;;16.90;14.00;;;;;;;;;;5053841;28;20133;-56
2024/02/28 02:58:43;;;;;;;17.80;15.13;;;;;;;;;;5053573;28;20055;-56
2024/02/28 03:01:09;;;;;;;20.35;15.05;;;;;;;;;;5053735;28;20111;-56
2024/02/28 03:03:37;;;;;;;22.83;15.27;;;;;;;;;;5054160;28;20025;-57
2024/02/28 03:06:04;;;;;;;19.63;16.95;;;;;;;;;;5053670;28;20064;-55
2024/02/28 03:08:30;;;;;;;21.85;15.30;;;;;;;;;;5053767;28;20112;-56
2024/02/28 03:10:56;;;;;;;19.25;15.27;;;;;;;;;;5053682;28;20055;-57
2024/02/28 03:13:22;;;;;;;17.63;14.80;;;;;;;;;;5054141;28;20029;-56
2024/02/28 03:15:48;;;;;;;19.23;15.55;;;;;;;;;;5053589;28;20079;-55
2024/02/28 03:18:14;;;;;;;18.88;14.18;;;;;;;;;;5053929;28;20025;-56
2024/02/28 03:20:40;;;;;;;18.67;14.38;;;;;;;;;;5053602;28;20448;-51
2024/02/28 03:23:06;;;;;;;18.23;15.07;;;;;;;;;;5053566;28;20022;-55
2024/02/28 03:25:33;;;;;;;26.35;16.10;;;;;;;;;;5053923;28;20120;-56
2024/02/28 03:27:59;;;;;;;18.92;14.48;;;;;;;;;;5053957;28;20063;-56
2024/02/28 03:30:25;;;;;;;20.98;15.02;;;;;;;;;;5053724;28;20033;-56
2024/02/28 03:32:51;;;;;;;21.73;16.77;;;;;;;;;;5054038;28;20022;-57
2024/02/28 03:35:17;;;;;;;18.35;14.90;;;;;;;;;;5053459;28;20100;-55
2024/02/28 03:37:43;;;;;;;19.52;15.63;;;;;;;;;;5053464;28;20107;-57
2024/02/28 03:40:09;;;;;;;20.77;16.60;;;;;;;;;;5053928;28;20029;-56
2024/02/28 03:42:35;;;;;;;19.30;15.70;;;;;;;;;;5053451;28;20040;-57
2024/02/28 03:45:01;;;;;;;19.38;16.08;;;;;;;;;;5053747;28;20041;-56
2024/02/28 03:47:27;;;;;;;19.60;15.32;;;;;;;;;;5053337;28;20029;-57
2024/02/28 03:49:57;;;;;;;19.65;16.10;;;;;;;;;;5054177;28;20040;-56
2024/02/28 03:52:23;;;;;;;22.13;17.00;;;;;;;;;;5054098;28;20032;-56
2024/02/28 03:54:49;;;;;;;19.20;14.60;;;;;;;;;;5053292;28;20466;-57
2024/02/28 03:57:14;;;;;;;17.98;14.85;;;;;;;;;;5053419;28;20136;-54
2024/02/28 03:59:43;;;;;;;20.83;16.20;;;;;;;;;;5053424;28;20032;-56
2024/02/28 04:02:10;;;;;;;21.63;16.52;;;;;;;;;;5052884;28;20387;-56
2024/02/28 04:04:35;;;;;;;22.40;14.63;;;;;;;;;;5053664;28;20144;-57
2024/02/28 04:07:02;;;;;;;21.40;15.85;;;;;;;;;;5053207;28;20032;-57
2024/02/28 04:09:27;;;;;;;19.40;16.52;;;;;;;;;;5056660;28;20033;-56
2024/02/28 04:11:54;;;;;;;21.23;14.57;;;;;;;;;;5057426;28;20029;-56
2024/02/28 04:14:20;;;;;;;20.13;13.98;;;;;;;;;;5057071;28;20025;-56
2024/02/28 04:16:47;;;;;;;23.98;15.32;;;;;;;;;;5057325;28;20032;-56
2024/02/28 04:19:13;;;;;;;25.58;16.17;;;;;;;;;;5057030;28;20429;-57
2024/02/28 04:21:39;;;;;;;20.98;15.93;;;;;;;;;;5057062;28;20049;-56
2024/02/28 04:24:05;;;;;;;22.42;17.15;;;;;;;;;;5057181;28;20477;-56
2024/02/28 04:26:31;;;;;;;21.00;15.30;;;;;;;;;;5057073;28;20029;-56
2024/02/28 04:28:57;;;;;;;19.50;14.82;;;;;;;;;;5056843;28;20025;-54
2024/02/28 04:31:23;;;;;;;19.95;16.60;;;;;;;;;;5056288;28;20125;-56
2024/02/28 04:33:49;;;;;;;18.77;14.68;;;;;;;;;;5056535;28;20025;-57
2024/02/28 04:36:16;;;;;;;17.35;14.25;;;;;;;;;;5056991;28;20032;-57
2024/02/28 04:38:42;;;;;;;18.23;14.80;;;;;;;;;;5057260;28;20028;-54
2024/02/28 04:41:07;;;;;;;18.10;15.18;;;;;;;;;;5056469;28;20025;-54
2024/02/28 04:43:34;;;;;;;17.20;14.50;;;;;;;;;;5056645;28;20029;-57
2024/02/28 04:46:00;;;;;;;18.23;14.23;;;;;;;;;;5056363;28;20029;-56
2024/02/28 04:48:25;;;;;;;19.58;14.13;;;;;;;;;;5056767;28;20025;-57
2024/02/28 04:50:52;;;;;;;18.08;13.68;;;;;;;;;;5056240;28;20033;-54
2024/02/28 04:53:18;;;;;;;19.65;16.23;;;;;;;;;;5055887;28;20033;-56
2024/02/28 04:55:47;;;;;;;22.60;15.82;;;;;;;;;;5056742;28;20044;-57
2024/02/28 04:58:13;;;;;;;19.13;15.57;;;;;;;;;;5056458;28;20082;-57
2024/02/28 05:00:39;;;;;;;18.60;14.48;;;;;;;;;;5056715;28;20048;-57
2024/02/28 05:03:05;;;;;;;17.35;14.23;;;;;;;;;;5056077;28;20021;-56
2024/02/28 05:05:31;;;;;;;22.50;15.38;;;;;;;;;;5056053;28;20367;-54
2024/02/28 05:07:57;;;;;;;17.50;15.05;;;;;;;;;;5056617;28;20017;-56
2024/02/28 05:10:23;;;;;;;16.80;14.60;;;;;;;;;;5056539;28;20025;-56
2024/02/28 05:12:49;;;;;;;16.77;14.70;;;;;;;;;;5056163;28;20379;-54
2024/02/28 05:15:15;;;;;;;17.17;14.48;;;;;;;;;;5055518;28;20029;-56
2024/02/28 05:17:41;;;;;;;19.75;14.15;;;;;;;;;;5055669;28;20519;-57
2024/02/28 05:20:08;;;;;;;19.67;14.63;;;;;;;;;;5055359;28;20147;-55
2024/02/28 05:22:34;;;;;;;18.15;15.07;;;;;;;;;;5055506;28;20029;-58
2024/02/28 05:25:00;;;;;;;18.35;16.40;;;;;;;;;;5055544;28;20391;-58
2024/02/28 05:27:27;;;;;;;15.77;13.43;;;;;;;;;;5055499;28;20039;-56
2024/02/28 05:29:53;;;;;;;18.05;13.93;;;;;;;;;;5055512;28;20133;-56
2024/02/28 05:32:19;;;;;;;16.75;13.30;;;;;;;;;;5055153;28;20061;-56
2024/02/28 05:34:46;;;;;;;20.98;14.80;;;;;;;;;;5055373;28;20344;-57
2024/02/28 05:37:12;;;;;;;20.08;14.52;;;;;;;;;;5055122;28;20032;-57
2024/02/28 05:39:38;;;;;;;27.80;16.15;;;;;;;;;;5055609;28;20029;-57
2024/02/28 05:42:04;;;;;;;18.52;14.68;;;;;;;;;;5055386;28;20383;-58
2024/02/28 05:44:30;;;;;;;18.20;14.55;;;;;;;;;;5055088;28;20028;-57
2024/02/28 05:46:56;;;;;;;20.42;15.65;;;;;;;;;;5055212;28;20025;-58
2024/02/28 05:49:22;;;;;;;17.70;14.93;;;;;;;;;;5055242;28;20025;-57
2024/02/28 05:51:48;;;;;;;15.48;13.93;;;;;;;;;;5055570;28;20032;-56
2024/02/28 05:54:14;;;;;;;19.15;15.13;;;;;;;;;;5055026;28;20467;-57
2024/02/28 05:56:40;;;;;;;21.70;14.13;;;;;;;;;;5055144;28;20048;-58
2024/02/28 05:59:06;;;;;;;20.80;16.15;;;;;;;;;;5054888;28;20048;-57
2024/02/28 06:01:32;;;;;;;24.27;16.33;;;;;;;;;;5055505;28;20053;-58
2024/02/28 06:03:58;;;;;;;17.73;14.20;;;;;;;;;;5055711;28;20029;-57
2024/02/28 06:06:25;;;;;;;19.20;13.15;;;;;;;;;;5055198;28;20471;-56
2024/02/28 06:08:51;;;;;;;19.90;15.07;;;;;;;;;;5055420;28;20034;-58
2024/02/28 06:11:17;;;;;;;20.65;17.20;;;;;;;;;;5054486;28;20056;-55
2024/02/28 06:13:43;;;;;;;18.63;13.38;;;;;;;;;;5053934;28;20036;-58
2024/02/28 06:16:14;;;;;;;19.08;14.80;;;;;;;;;;5054423;28;20370;-58
2024/02/28 06:18:40;;;;;;;24.52;17.13;;;;;;;;;;5054491;28;20037;-58
2024/02/28 06:21:06;;;;;;;18.08;14.18;;;;;;;;;;5054740;28;20021;-57
2024/02/28 06:23:32;;;;;;;22.52;15.73;;;;;;;;;;5054478;28;20021;-57
2024/02/28 06:25:58;;;;;;;24.35;15.45;;;;;;;;;;5054618;28;20363;-57
2024/02/28 06:28:24;;;;;;;21.10;15.25;;;;;;;;;;5055084;28;20021;-57
2024/02/28 06:30:50;;;;;;;18.67;14.77;;;;;;;;;;5054500;28;20056;-57
2024/02/28 06:33:16;;;;;;;19.02;14.95;;;;;;;;;;5054326;28;20071;-58
2024/02/28 06:35:42;;;;;;;20.15;14.07;;;;;;;;;;5054254;28;20026;-56
2024/02/28 06:38:08;;;;;;;19.35;14.82;;;;;;;;;;5054904;28;20043;-58
2024/02/28 06:40:34;;;;;;;16.55;14.50;;;;;;;;;;5054675;28;20459;-55
2024/02/28 06:43:00;;;;;;;21.13;15.90;;;;;;;;;;5054639;28;20033;-56
2024/02/28 06:45:26;;;;;;;20.48;15.65;;;;;;;;;;5054126;28;20056;-56
2024/02/28 06:47:52;;;;;;;18.17;16.02;;;;;;;;;;5054693;28;20052;-57
2024/02/28 06:50:18;;;;;;;17.27;15.25;;;;;;;;;;5054084;28;20037;-56
2024/02/28 06:52:44;;;;;;;19.92;15.38;;;;;;;;;;5054369;28;20107;-57
2024/02/28 06:55:10;;;;;;;17.65;14.68;;;;;;;;;;5053967;28;20182;-57
2024/02/28 06:57:40;;;;;;;22.83;16.02;;;;;;;;;;5054394;28;20383;-57
2024/02/28 07:00:11;;;;;;;18.42;14.52;;;;;;;;;;5054074;28;20036;-56
2024/02/28 07:02:38;;;;;;;17.48;14.30;;;;;;;;;;5053816;28;20055;-56
2024/02/28 07:05:06;;;;;;;16.95;14.10;;;;;;;;;;5053499;28;20029;-57
2024/02/28 07:07:32;;;;;;;18.33;15.45;;;;;;;;;;5053587;28;20053;-57
2024/02/28 07:10:01;;;;;;;18.75;14.32;;;;;;;;;;5053507;28;20075;-57
2024/02/28 07:12:27;;;;;;;20.13;15.63;;;;;;;;;;5053839;28;20104;-56
2024/02/28 07:14:53;;;;;;;19.95;15.80;;;;;;;;;;5053770;28;20068;-57
2024/02/28 07:17:19;;;;;;;22.25;14.55;;;;;;;;;;5054263;28;20024;-56
2024/02/28 07:19:45;;;;;;;16.42;14.25;;;;;;;;;;5054194;28;20025;-57
2024/02/28 07:22:10;;;;;;;18.95;14.95;;;;;;;;;;5053692;28;20040;-57
2024/02/28 07:24:37;;;;;;;18.13;14.23;;;;;;;;;;5054109;28;20021;-57
2024/02/28 07:27:03;;;;;;;20.63;14.77;;;;;;;;;;5053506;28;20028;-57
2024/02/28 07:29:28;;;;;;;18.85;14.70;;;;;;;;;;5054006;28;20032;-55
2024/02/28 07:31:54;;;;;;;14.98;13.25;;;;;;;;;;5053790;28;20032;-56
2024/02/28 07:34:20;;;;;;;18.02;14.75;;;;;;;;;;5053242;28;20025;-55
2024/02/28 07:36:46;;;;;;;20.60;16.27;;;;;;;;;;5054066;28;20049;-57
2024/02/28 07:39:12;;;;;;;17.55;14.60;;;;;;;;;;5053694;28;20032;-56
2024/02/28 07:41:39;;;;;;;18.63;14.70;;;;;;;;;;5053438;28;20459;-56
2024/02/28 07:44:06;;;;;;;20.83;15.40;;;;;;;;;;5056892;28;20029;-56
2024/02/28 07:46:32;;;;;;;17.45;15.10;;;;;;;;;;5057486;28;20028;-56
2024/02/28 07:48:58;;;;;;;20.33;14.85;;;;;;;;;;5058095;28;20028;-56
2024/02/28 07:51:24;;;;;;;17.25;12.88;;;;;;;;;;5058316;28;20029;-56
2024/02/28 07:53:50;;;;;;;15.73;14.02;;;;;;;;;;5057079;28;20028;-57
2024/02/28 07:56:17;;;;;;;18.77;15.40;;;;;;;;;;5057564;28;20049;-57
2024/02/28 07:58:43;;;;;;;18.15;14.10;;;;;;;;;;5056244;28;20467;-57
2024/02/28 08:01:09;;;;;;;19.95;15.65;;;;;;;;;;5057684;28;20032;-54
2024/02/28 08:03:35;;;;;;;20.83;15.93;;;;;;;;;;5057152;28;20021;-56
2024/02/28 08:06:01;;;;;;;18.70;15.07;;;;;;;;;;5057174;28;20032;-56
2024/02/28 08:08:27;;;;;;;22.38;15.80;;;;;;;;;;5057462;28;20025;-57
2024/02/28 08:10:53;;;;;;;17.50;13.88;;;;;;;;;;5057373;28;20021;-56
2024/02/28 08:13:19;;;;;;;20.35;15.98;;;;;;;;;;5057054;28;20021;-57
2024/02/28 08:15:45;;;;;;;20.83;16.00;;;;;;;;;;5057037;28;20498;-56
2024/02/28 08:18:11;;;;;;;20.42;15.60;;;;;;;;;;5057747;28;20065;-56
2024/02/28 08:20:37;;;;;;;17.27;14.85;;;;;;;;;;5057334;28;20029;-57
2024/02/28 08:23:04;;;;;;;16.90;14.68;;;;;;;;;;5056737;28;20094;-57
2024/02/28 08:25:30;;;;;;;18.25;15.13;;;;;;;;;;5056968;28;20032;-57
2024/02/28 08:27:56;;;;;;;20.50;15.20;;;;;;;;;;5056390;28;20021;-56
2024/02/28 08:30:22;;;;;;;19.90;14.77;;;;;;;;;;5056374;28;20497;-56
2024/02/28 08:32:48;;;;;;;21.48;16.15;;;;;;;;;;5057215;28;20033;-56
2024/02/28 08:35:14;;;;;;;21.08;16.63;;;;;;;;;;5056366;28;20033;-57
2024/02/28 08:37:40;;;;;;;22.48;15.80;;;;;;;;;;5056859;28;20025;-56
2024/02/28 08:40:07;;;;;;;22.42;17.45;;;;;;;;;;5056807;28;20107;-56
2024/02/28 08:42:33;;;;;;;21.73;15.43;;;;;;;;;;5056286;28;20029;-56
2024/02/28 08:45:00;;;;;;;20.05;17.02;;;;;;;;;;5056727;28;20108;-57
2024/02/28 08:47:27;;;;;;;21.10;16.77;;;;;;;;;;5056406;28;20029;-57
2024/02/28 08:49:56;;;;;;;19.75;15.43;;;;;;;;;;5057157;28;20029;-56
2024/02/28 08:52:22;;;;;;;17.67;14.95;;;;;;;;;;5056537;28;20033;-57
2024/02/28 08:54:48;;;;;;;19.92;16.05;;;;;;;;;;5055480;28;20029;-57
2024/02/28 08:57:15;;;;;;;19.30;15.75;;;;;;;;;;5055732;28;20048;-55
2024/02/28 08:59:40;;;;;;;22.05;15.75;;;;;;;;;;5055962;28;20025;-59
2024/02/28 09:02:11;;;;;;;20.08;15.68;;;;;;;;;;5056227;28;20116;-56
2024/02/28 09:04:36;;;;;;;21.92;16.17;;;;;;;;;;5056517;28;20421;-57
2024/02/28 09:07:03;;;;;;;16.83;15.02;;;;;;;;;;5056622;28;20017;-57
2024/02/28 09:09:32;;;;;;;20.50;15.88;;;;;;;;;;5056251;28;20075;-55
2024/02/28 09:11:57;;;;;;;20.90;15.07;;;;;;;;;;5056349;28;20029;-58
2024/02/28 09:14:24;;;;;;;22.50;17.17;;;;;;;;;;5056498;28;20439;-57
2024/02/28 09:16:49;;;;;;;21.58;16.15;;;;;;;;;;5055925;28;20021;-56
2024/02/28 09:19:17;;;;;;;19.85;17.05;;;;;;;;;;5055932;28;20033;-55
2024/02/28 09:21:43;;;;;;;19.98;16.50;;;;;;;;;;5055746;28;20029;-57
2024/02/28 09:24:09;;;;;;;19.98;16.73;;;;;;;;;;5055709;28;20370;-54
2024/02/28 09:26:39;;;;;;;19.58;16.40;;;;;;;;;;5055478;28;20021;-54
2024/02/28 09:29:04;;;;;;;20.00;15.80;;;;;;;;;;5056096;28;20029;-55
2024/02/28 09:31:30;;;;;;;18.77;16.13;;;;;;;;;;5055717;28;20108;-56
2024/02/28 09:33:58;;;;;;;16.98;14.00;;;;;;;;;;5055472;28;20105;-55
2024/02/28 09:36:24;;;;;;;15.90;14.07;;;;;;;;;;5055379;28;20029;-55
2024/02/28 09:38:50;;;;;;;18.08;14.50;;;;;;;;;;5055846;28;20029;-56
2024/02/28 09:41:16;;;;;;;19.58;13.85;;;;;;;;;;5055396;28;20040;-57
2024/02/28 09:43:43;;;;;;;16.70;14.90;;;;;;;;;;5055251;28;20025;-56
2024/02/28 09:46:11;;;;;;;17.63;14.13;;;;;;;;;;5055185;28;20029;-57
2024/02/28 09:48:39;;;;;;;20.08;15.18;;;;;;;;;;5055825;28;20040;-57
2024/02/28 09:51:05;;;;;;;19.48;15.77;;;;;;;;;;5055978;28;20094;-56
2024/02/28 09:53:31;;;;;;;19.65;14.90;;;;;;;;;;5055819;28;20029;-56
2024/02/28 09:55:57;;;;;;;16.05;13.38;;;;;;;;;;5054772;28;20041;-56
2024/02/28 09:58:23;;;;;;;16.00;12.27;;;;;;;;;;5055579;28;20075;-57
2024/02/28 10:01:05;;;;;;;19.02;13.50;;;;;;;;;;5054555;28;20044;-54
2024/02/28 10:03:32;;;;;;;15.30;11.13;;;;;;;;;;5054958;28;20371;-56
2024/02/28 10:05:58;;;;;;;14.77;11.02;;;;;;;;;;5054432;28;20040;-56
2024/02/28 10:08:24;;;;;;;13.55;10.48;;;;;;;;;;5055412;28;20418;-54
2024/02/28 10:10:54;;;;;;;12.65;11.05;;;;;;;;;;5055348;28;20057;-57
2024/02/28 10:13:20;;;;;;;13.45;11.35;;;;;;;;;;5055324;28;20043;-56
2024/02/28 10:15:46;;;;;;;13.10;11.02;;;;;;;;;;5055127;28;20025;-56
2024/02/28 10:18:12;;;;;;;13.75;10.93;;;;;;;;;;5055357;28;20444;-56
2024/02/28 10:20:38;;;;;;;15.25;11.85;;;;;;;;;;5055432;28;20040;-55
2024/02/28 10:23:08;;;;;;;20.00;11.63;;;;;;;;;;5055278;28;20423;-54
2024/02/28 10:25:42;;;;;;;14.63;11.02;;;;;;;;;;5055522;28;20048;-57
2024/02/28 10:28:07;;;;;;;16.77;12.55;;;;;;;;;;5054888;28;20055;-55
2024/02/28 10:30:38;;;;;;;16.67;13.57;;;;;;;;;;5054945;28;20061;-54
2024/02/28 10:33:05;;;;;;;13.80;12.35;;;;;;;;;;5054709;28;20555;-53
2024/02/28 10:35:31;;;;;;;19.25;14.15;;;;;;;;;;5054616;28;20112;-56
2024/02/28 10:37:57;;;;;;;14.43;11.55;;;;;;;;;;5054489;28;20029;-54
2024/02/28 10:40:23;;;;;;;16.80;12.13;;;;;;;;;;5054180;28;20120;-56
2024/02/28 10:42:49;;;;;;;14.60;12.38;;;;;;;;;;5054261;28;20040;-55
2024/02/28 10:45:18;;;;;;;17.23;13.85;;;;;;;;;;5054240;28;20025;-54
2024/02/28 10:47:47;;;;;;;17.70;13.32;;;;;;;;;;5054224;28;20469;-57
2024/02/28 10:50:15;;;;;;;16.02;13.88;;;;;;;;;;5054709;28;20425;-57
2024/02/28 10:52:44;;;;;;;13.68;12.27;;;;;;;;;;5053736;28;20032;-55
2024/02/28 10:55:10;;;;;;;16.05;11.80;;;;;;;;;;5053761;28;20021;-58
2024/02/28 10:57:37;;;;;;;17.98;12.85;;;;;;;;;;5054615;28;20052;-57
2024/02/28 11:00:04;;;;;;;15.20;12.68;;;;;;;;;;5053953;28;20028;-57
2024/02/28 11:02:31;;;;;;;20.30;13.98;;;;;;;;;;5053896;28;20037;-56
2024/02/28 11:04:58;;;;;;;17.80;13.45;;;;;;;;;;5054296;28;20029;-56
2024/02/28 11:07:24;;;;;;;15.05;12.90;;;;;;;;;;5054441;28;20021;-57
2024/02/28 11:09:56;;;;;;;17.83;15.90;;;;;;;;;;5054271;28;20131;-57
2024/02/28 11:12:29;;;;;;;17.05;14.00;;;;;;;;;;5054344;28;20116;-55
2024/02/28 11:15:02;;;;;;;18.13;12.73;;;;;;;;;;5054483;28;20451;-56
2024/02/28 11:17:29;;;;;;;13.30;11.82;;;;;;;;;;5053180;28;20123;-57
2024/02/28 11:19:55;;;;;;;15.85;12.75;;;;;;;;;;5054085;28;20040;-56
2024/02/28 11:22:21;;;;;;;14.65;12.63;;;;;;;;;;5054553;28;20082;-55
2024/02/28 11:24:49;;;;;;;13.23;11.65;;;;;;;;;;5054464;28;20033;-55
2024/02/28 11:27:16;;;;;;;14.57;12.65;;;;;;;;;;5053738;28;20367;-56
2024/02/28 11:29:42;;;;;;;15.00;12.52;;;;;;;;;;5054275;28;20033;-55
2024/02/28 11:32:10;;;;;;;14.50;12.15;;;;;;;;;;5053867;28;20044;-56
2024/02/28 11:34:36;;;;;;;16.05;12.20;;;;;;;;;;5053602;28;20044;-55
2024/02/28 11:37:03;;;;;;;24.98;14.35;;;;;;;;;;5054360;28;20466;-56
2024/02/28 11:39:31;;;;;;;15.20;11.63;;;;;;;;;;5054350;28;20071;-55
2024/02/28 11:42:08;;;;;;;14.70;10.45;;;;;;;;;;5053842;28;20033;-55
2024/02/28 11:44:34;;;;;;;18.65;13.13;;;;;;;;;;5054125;28;20116;-54
2024/02/28 11:47:00;;;;;;;15.48;13.48;;;;;;;;;;5054010;28;20415;-55
2024/02/28 11:49:26;;;;;;;18.20;13.63;;;;;;;;;;5053560;28;20029;-57
2024/02/28 11:51:52;;;;;;;20.55;12.93;;;;;;;;;;5053155;28;20094;-55
2024/02/28 11:54:18;;;;;;;18.65;13.95;;;;;;;;;;5053535;28;20024;-51
2024/02/28 11:56:44;;;;;;;18.55;12.65;;;;;;;;;;5053191;28;20041;-56
2024/02/28 11:59:13;;;;;;;14.80;12.68;;;;;;;;;;5053321;28;20112;-54
2024/02/28 12:01:40;;;;;;;14.63;11.95;;;;;;;;;;5053303;28;20029;-54
2024/02/28 12:04:10;;;;;;;16.33;13.02;;;;;;;;;;5053891;28;20032;-52
2024/02/28 12:06:36;;;;;;;15.18;13.05;;;;;;;;;;5053635;28;20055;-56
2024/02/28 12:09:03;;;;;;;15.68;13.63;;;;;;;;;;5053148;28;20025;-54
2024/02/28 12:11:30;;;;;;;15.05;12.57;;;;;;;;;;5053312;28;20367;-53
2024/02/28 12:13:56;;;;;;;16.23;13.55;;;;;;;;;;5053242;28;20021;-56
2024/02/28 12:16:25;;;;;;;14.48;12.65;;;;;;;;;;5053376;28;20021;-56
2024/02/28 12:18:54;;;;;;;16.65;13.40;;;;;;;;;;5053146;28;20025;-52
2024/02/28 12:21:20;;;;;;;20.45;13.50;;;;;;;;;;5053479;28;20466;-55
2024/02/28 12:23:48;;;;;;;18.58;13.70;;;;;;;;;;5053285;28;20026;-53
2024/02/28 12:26:14;;;;;;;23.67;16.55;;;;;;;;;;5053029;28;20025;-52
2024/02/28 12:28:40;;;;;;;18.67;14.02;;;;;;;;;;5053969;28;20020;-54
2024/02/28 12:31:11;;;;;;;18.30;15.00;;;;;;;;;;5057619;28;20427;-55
2024/02/28 12:33:37;;;;;;;19.33;15.10;;;;;;;;;;5057500;28;20094;-53
2024/02/28 12:36:04;;;;;;;18.83;14.75;;;;;;;;;;5056621;28;20025;-53
2024/02/28 12:38:30;;;;;;;17.23;14.15;;;;;;;;;;5057434;28;20049;-55
2024/02/28 12:40:57;;;;;;;18.42;13.77;;;;;;;;;;5057167;28;20079;-55
2024/02/28 12:43:23;;;;;;;19.45;12.57;;;;;;;;;;5057379;28;20021;-51
2024/02/28 12:45:48;;;;;;;17.25;13.70;;;;;;;;;;5056208;28;20590;-57
2024/02/28 12:48:14;;;;;;;17.65;13.05;;;;;;;;;;5056780;28;20021;-56
2024/02/28 12:50:40;;;;;;;21.30;15.05;;;;;;;;;;5056414;28;20032;-57
2024/02/28 12:53:06;;;;;;;17.85;13.25;;;;;;;;;;5056972;28;20036;-57
2024/02/28 12:55:32;;;;;;;16.75;15.00;;;;;;;;;;5056846;28;20021;-56
2024/02/28 12:58:00;;;;;;;18.50;14.90;;;;;;;;;;5056098;28;20045;-56
2024/02/28 13:00:26;;;;;;;18.70;12.25;;;;;;;;;;5055688;28;20486;-55
2024/02/28 13:02:55;;;;;;;17.33;13.05;;;;;;;;;;5056156;28;20387;-57
2024/02/28 13:05:20;;;;;;;18.48;14.43;;;;;;;;;;5056039;28;20025;-55
2024/02/28 13:07:46;;;;;;;20.35;14.65;;;;;;;;;;5055917;28;20021;-56
2024/02/28 13:10:13;;;;;;;19.08;13.70;;;;;;;;;;5055781;28;20108;-56
2024/02/28 13:12:39;;;;;;;17.65;13.90;;;;;;;;;;5055971;28;20025;-53
2024/02/28 13:15:05;;;;;;;19.15;13.73;;;;;;;;;;5056426;28;20357;-56
2024/02/28 13:17:31;;;;;;;17.05;13.80;;;;;;;;;;5055954;28;20040;-55
2024/02/28 13:19:58;;;;;;;19.65;14.80;;;;;;;;;;5056452;28;20033;-54
2024/02/28 13:22:24;;;;;;;19.23;14.50;;;;;;;;;;5056354;28;20036;-56
2024/02/28 13:24:50;;;;;;;15.95;13.55;;;;;;;;;;5056575;28;20072;-56
2024/02/28 13:27:16;;;;;;;18.25;13.52;;;;;;;;;;5056351;28;20447;-56
2024/02/28 13:29:42;;;;;;;17.80;15.00;;;;;;;;;;5056230;28;20107;-54
2024/02/28 13:32:09;;;;;;;20.17;14.35;;;;;;;;;;5056275;28;20079;-53
2024/02/28 13:34:34;;;;;;;17.98;15.10;;;;;;;;;;5055501;28;20040;-55
2024/02/28 13:37:00;;;;;;;18.60;14.75;;;;;;;;;;5055317;28;20455;-54
2024/02/28 13:39:27;;;;;;;21.13;14.27;;;;;;;;;;5056234;28;20462;-56
2024/02/28 13:41:53;;;;;;;19.38;13.88;;;;;;;;;;5054792;28;20029;-55
2024/02/28 13:44:19;;;;;;;17.92;13.88;;;;;;;;;;5055353;28;20082;-53
2024/02/28 13:46:45;;;;;;;21.90;14.02;;;;;;;;;;5055622;28;20029;-56
2024/02/28 13:49:13;;;;;;;23.08;15.90;;;;;;;;;;5055791;28;20409;-54
2024/02/28 13:51:39;;;;;;;19.30;15.45;;;;;;;;;;5055155;28;20025;-57
2024/02/28 13:54:05;;;;;;;18.60;15.60;;;;;;;;;;5054817;28;20477;-55
2024/02/28 13:56:31;;;;;;;19.65;15.02;;;;;;;;;;5055255;28;20517;-57
2024/02/28 13:58:57;;;;;;;20.20;16.13;;;;;;;;;;5054895;28;20029;-57
2024/02/28 14:01:23;;;;;;;17.77;13.75;;;;;;;;;;5055405;28;20103;-57
2024/02/28 14:03:49;;;;;;;17.75;14.90;;;;;;;;;;5054758;28;20455;-55
2024/02/28 14:06:15;;;;;;;16.90;14.23;;;;;;;;;;5055034;28;20036;-57
2024/02/28 14:08:41;;;;;;;18.27;14.05;;;;;;;;;;5055738;28;20032;-56
2024/02/28 14:11:07;;;;;;;18.58;14.98;;;;;;;;;;5054805;28;20028;-56